createdAt,value
2022-10-20T00:04:16.301Z,5.32
2022-10-20T00:09:20.182Z,4.85
2022-10-20T00:14:21.486Z,10.65
2022-10-20T00:19:22.705Z,7.82
2022-10-20T00:24:24.136Z,5.55
2022-10-20T00:29:25.456Z,5.57
2022-10-20T00:34:26.834Z,5.63
2022-10-20T00:39:28.141Z,8.48
2022-10-20T00:44:56.095Z,5.47
2022-10-20T00:50:07.718Z,4.88
2022-10-20T00:55:10.723Z,6.10
2022-10-20T01:00:12.737Z,5.43
2022-10-20T01:05:14.058Z,5.22
2022-10-20T01:10:15.972Z,4.40
2022-10-20T01:15:28.958Z,9.27
2022-10-20T01:21:07.914Z,5.50
2022-10-20T01:26:39.815Z,6.35
2022-10-20T01:31:48.051Z,8.70
2022-10-20T01:36:57.114Z,6.13
2022-10-20T01:42:09.273Z,7.75
2022-10-20T01:47:13.540Z,4.57
2022-10-20T01:52:15.093Z,7.82
2022-10-20T01:57:18.996Z,7.63
2022-10-20T02:02:38.116Z,5.18
2022-10-20T02:07:42.742Z,5.53
2022-10-20T02:12:49.297Z,5.22
2022-10-20T02:17:57.294Z,6.55
2022-10-20T02:23:00.445Z,5.32
2022-10-20T02:28:04.192Z,5.50
2022-10-20T02:33:07.058Z,4.43
2022-10-20T02:38:08.314Z,7.45
2022-10-20T02:43:09.547Z,6.00
2022-10-20T02:48:10.785Z,5.18
2022-10-20T02:53:12.066Z,4.95
2022-10-20T02:58:13.362Z,4.63
2022-10-20T03:03:14.586Z,5.07
2022-10-20T03:08:16.071Z,5.85
2022-10-20T03:13:17.375Z,7.32
2022-10-20T03:18:18.647Z,5.38
2022-10-20T03:23:20.714Z,5.43
2022-10-20T03:28:21.959Z,6.85
2022-10-20T03:33:23.399Z,5.63
2022-10-20T03:38:24.688Z,6.60
2022-10-20T03:43:26.017Z,5.32
2022-10-20T03:48:27.272Z,6.82
2022-10-20T03:53:29.602Z,7.30
2022-10-20T03:58:30.842Z,7.30
2022-10-20T04:03:32.461Z,7.45
2022-10-20T04:08:33.824Z,8.32
2022-10-20T04:13:35.173Z,5.60
2022-10-20T04:18:36.504Z,6.78
2022-10-20T04:23:37.738Z,6.95
2022-10-20T04:28:39.050Z,10.35
2022-10-20T04:33:40.289Z,7.20
2022-10-20T04:38:41.527Z,6.50
2022-10-20T04:43:42.835Z,5.70
2022-10-20T04:48:44.486Z,6.47
2022-10-20T04:53:46.501Z,5.85
2022-10-20T04:58:52.954Z,6.80
2022-10-20T05:03:54.830Z,5.82
2022-10-20T05:08:59.282Z,6.00
2022-10-20T05:19:01.843Z,7.53
2022-10-20T05:24:04.968Z,6.95
2022-10-20T05:29:08.019Z,6.25
2022-10-20T05:34:11.141Z,7.43
2022-10-20T05:39:12.595Z,7.97
2022-10-20T05:44:13.946Z,7.68
2022-10-20T05:49:17.340Z,7.18
2022-10-20T05:54:18.904Z,10.25
2022-10-20T05:59:20.222Z,9.57
2022-10-20T06:04:23.756Z,10.88
2022-10-20T06:09:25.236Z,10.67
2022-10-20T06:14:26.673Z,10.55
2022-10-20T06:19:27.964Z,8.10
2022-10-20T06:24:29.378Z,8.05
2022-10-20T06:29:30.639Z,8.07
2022-10-20T06:34:31.893Z,8.77
2022-10-20T06:39:33.166Z,10.60
2022-10-20T06:44:34.537Z,11.82
2022-10-20T06:49:35.973Z,8.75
2022-10-20T06:54:37.252Z,9.77
2022-10-20T06:59:38.685Z,8.90
2022-10-20T07:04:39.989Z,9.50
2022-10-20T07:09:41.233Z,9.32
2022-10-20T07:14:42.537Z,10.48
2022-10-20T07:19:43.822Z,11.90
2022-10-20T07:24:45.079Z,8.85
2022-10-20T07:29:46.356Z,10.13
2022-10-20T07:34:47.684Z,8.55
2022-10-20T07:39:49.090Z,9.52
2022-10-20T07:44:50.331Z,10.73
2022-10-20T07:49:51.589Z,9.90
2022-10-20T07:55:01.520Z,8.98
2022-10-20T08:00:14.663Z,13.77
2022-10-20T08:05:16.055Z,10.27
2022-10-20T08:10:17.500Z,12.80
2022-10-20T08:15:18.853Z,13.23
2022-10-20T08:20:22.398Z,10.32
2022-10-20T08:25:26.541Z,11.57
2022-10-20T08:30:27.889Z,13.00
2022-10-20T08:35:29.167Z,13.20
2022-10-20T08:40:30.969Z,13.73
2022-10-20T08:45:38.151Z,15.13
2022-10-20T08:50:45.352Z,13.13
2022-10-20T08:55:46.995Z,13.52
2022-10-20T09:00:55.226Z,14.63
2022-10-20T09:06:07.630Z,14.88
2022-10-20T09:11:14.235Z,13.73
2022-10-20T09:16:23.225Z,15.30
2022-10-20T09:21:38.608Z,14.55
2022-10-20T09:27:04.235Z,16.58
2022-10-20T09:32:50.917Z,13.90
2022-10-20T09:38:29.498Z,13.88
2022-10-20T09:43:31.620Z,14.77
2022-10-20T09:48:36.540Z,17.33
2022-10-20T09:53:55.272Z,14.82
2022-10-20T09:58:58.995Z,13.70
2022-10-20T10:04:02.093Z,14.32
2022-10-20T10:14:33.438Z,15.50
2022-10-20T10:19:34.914Z,14.93
2022-10-20T10:24:43.681Z,15.48
2022-10-20T10:29:45.081Z,14.63
2022-10-20T10:35:09.361Z,17.58
2022-10-20T10:40:24.191Z,16.77
2022-10-20T10:45:51.459Z,14.07
2022-10-20T10:51:10.719Z,15.63
2022-10-20T10:56:30.798Z,15.35
2022-10-20T11:02:15.251Z,16.42
2022-10-20T11:07:41.391Z,17.02
2022-10-20T11:13:24.405Z,17.60
2022-10-20T11:18:47.165Z,17.08
2022-10-20T11:24:19.202Z,15.25
2022-10-20T11:29:33.235Z,13.88
2022-10-20T11:34:47.050Z,13.55
2022-10-20T11:39:58.618Z,14.45
2022-10-20T11:45:01.664Z,15.57
2022-10-20T11:50:10.550Z,13.65
2022-10-20T11:55:20.811Z,14.77
2022-10-20T12:00:37.408Z,14.38
2022-10-20T12:06:09.953Z,12.77
2022-10-20T12:11:46.386Z,13.60
2022-10-20T12:16:59.817Z,14.25
2022-10-20T12:22:13.264Z,16.40
2022-10-20T12:27:22.449Z,12.53
2022-10-20T12:32:45.534Z,13.80
2022-10-20T12:37:58.809Z,14.60
2022-10-20T12:43:00.512Z,13.52
2022-10-20T12:48:03.240Z,13.65
2022-10-20T12:53:18.533Z,15.90
2022-10-20T12:58:19.792Z,13.18
2022-10-20T13:03:40.014Z,16.80
2022-10-20T13:08:41.275Z,15.60
2022-10-20T13:14:03.065Z,17.25
2022-10-20T13:19:13.906Z,14.25
2022-10-20T13:24:35.367Z,15.02
2022-10-20T13:40:22.668Z,14.52
2022-10-20T13:45:49.967Z,14.45
2022-10-20T13:51:03.478Z,15.07
2022-10-20T13:56:08.410Z,16.93
2022-10-20T14:01:12.442Z,15.38
2022-10-20T14:06:29.695Z,14.88
2022-10-20T14:11:32.054Z,15.13
2022-10-20T14:16:33.511Z,15.77
2022-10-20T14:21:45.051Z,14.95
2022-10-20T14:26:46.721Z,14.25
2022-10-20T14:31:48.891Z,14.93
2022-10-20T14:36:52.747Z,15.32
2022-10-20T14:41:57.181Z,15.68
2022-10-20T14:47:05.188Z,15.70
2022-10-20T14:52:22.258Z,16.90
2022-10-20T14:57:44.137Z,17.63
2022-10-20T15:02:45.920Z,15.55
2022-10-20T15:07:47.430Z,16.58
2022-10-20T15:12:52.004Z,15.88
2022-10-20T15:18:18.090Z,16.10
2022-10-20T15:23:25.206Z,16.90
2022-10-20T15:28:47.306Z,15.32
2022-10-20T15:33:48.911Z,16.33
2022-10-20T15:38:50.930Z,15.63
2022-10-20T15:43:52.868Z,15.93
2022-10-20T15:48:54.372Z,16.67
2022-10-20T15:53:56.555Z,16.45
2022-10-20T15:58:57.894Z,17.38
2022-10-20T16:04:02.150Z,16.50
2022-10-20T16:14:06.284Z,18.58
2022-10-20T16:19:08.255Z,16.30
2022-10-20T16:24:11.017Z,17.23
2022-10-20T16:29:12.298Z,16.77
2022-10-20T16:34:13.546Z,17.15
2022-10-20T16:39:17.100Z,18.02
2022-10-20T16:44:18.346Z,18.47
2022-10-20T16:49:19.625Z,17.48
2022-10-20T16:54:21.022Z,20.73
2022-10-20T16:59:22.346Z,16.58
2022-10-20T17:04:23.936Z,17.85
2022-10-20T17:09:25.399Z,17.38
2022-10-20T17:14:26.675Z,17.25
2022-10-20T17:19:27.953Z,17.15
2022-10-20T17:24:29.241Z,18.05
2022-10-20T17:29:30.494Z,16.67
2022-10-20T17:34:31.864Z,17.17
2022-10-20T17:39:33.145Z,18.20
2022-10-20T17:44:34.426Z,18.10
2022-10-20T17:49:35.682Z,18.42
2022-10-20T17:54:37.370Z,23.92
2022-10-20T17:59:52.103Z,18.63
2022-10-20T18:04:54.697Z,17.67
2022-10-20T18:09:56.023Z,17.42
2022-10-20T18:14:57.528Z,16.55
2022-10-20T18:19:59.924Z,16.85
2022-10-20T18:25:01.284Z,20.73
2022-10-20T18:30:02.763Z,17.60
2022-10-20T18:35:04.236Z,20.58
2022-10-20T18:40:06.222Z,21.75
2022-10-20T18:45:07.583Z,18.80
2022-10-20T18:50:09.198Z,18.58
2022-10-20T18:55:10.698Z,17.58
2022-10-20T19:00:12.555Z,18.38
2022-10-20T19:05:13.814Z,17.90
2022-10-20T19:10:15.141Z,17.85
2022-10-20T19:15:17.031Z,17.73
2022-10-20T19:20:18.318Z,19.55
2022-10-20T19:25:19.828Z,16.70
2022-10-20T19:30:21.238Z,17.65
2022-10-20T19:35:22.496Z,17.67
2022-10-20T19:40:27.540Z,17.65
2022-10-20T19:45:29.795Z,16.45
2022-10-20T19:50:34.382Z,16.33
2022-10-20T19:55:36.733Z,17.30
2022-10-20T20:00:43.437Z,17.13
2022-10-20T20:05:48.194Z,18.02
2022-10-20T20:10:55.126Z,18.25
2022-10-20T20:15:56.794Z,15.57
2022-10-20T20:21:02.283Z,16.70
2022-10-20T20:26:04.931Z,17.55
2022-10-20T20:31:08.384Z,17.05
2022-10-20T20:36:10.043Z,17.87
2022-10-20T20:41:14.927Z,17.23
2022-10-20T20:46:18.589Z,17.83
2022-10-20T20:51:20.421Z,17.48
2022-10-20T20:56:23.180Z,17.27
2022-10-20T21:01:30.999Z,17.48
2022-10-20T21:06:49.438Z,17.70
2022-10-20T21:11:53.609Z,16.70
2022-10-20T21:16:55.007Z,16.08
2022-10-20T21:22:01.130Z,14.68
2022-10-20T21:27:02.390Z,15.73
2022-10-20T21:32:03.716Z,15.15
2022-10-20T21:37:04.947Z,16.38
2022-10-20T21:42:06.195Z,15.70
2022-10-20T21:47:07.446Z,15.35
2022-10-20T21:52:08.841Z,14.73
2022-10-20T21:57:10.130Z,15.48
2022-10-20T22:02:14.034Z,16.20
2022-10-20T22:07:15.299Z,16.17
2022-10-20T22:12:16.537Z,15.45
2022-10-20T22:17:17.857Z,15.50
2022-10-20T22:22:19.088Z,15.82
2022-10-20T22:27:31.652Z,15.65
2022-10-20T22:32:41.672Z,15.55
2022-10-20T22:37:42.930Z,16.17
2022-10-20T22:42:44.190Z,16.02
2022-10-20T22:47:45.462Z,16.08
2022-10-20T22:52:46.680Z,16.25
2022-10-20T22:57:49.500Z,15.60
2022-10-20T23:02:50.754Z,16.05
2022-10-20T23:07:52.017Z,16.05
2022-10-20T23:12:53.309Z,14.60
2022-10-20T23:17:54.573Z,14.93
2022-10-20T23:22:55.805Z,19.38
2022-10-20T23:27:57.075Z,15.75
2022-10-20T23:32:58.339Z,15.88
2022-10-20T23:37:59.561Z,15.40
2022-10-20T23:43:00.881Z,16.90
2022-10-20T23:48:02.167Z,15.35
2022-10-20T23:53:03.424Z,15.77
2022-10-20T23:58:05.046Z,15.30
